createdAt,value
2023-07-27T00:02:27.026Z,3.90
2023-07-27T00:05:17.265Z,5.35
2023-07-27T00:08:04.418Z,4.75
2023-07-27T00:10:51.557Z,5.50
2023-07-27T00:13:38.724Z,6.25
2023-07-27T00:16:25.538Z,4.25
2023-07-27T00:19:13.104Z,5.07
2023-07-27T00:22:00.196Z,5.57
2023-07-27T00:24:47.629Z,3.95
2023-07-27T00:27:34.644Z,5.28
2023-07-27T00:30:22.099Z,3.97
2023-07-27T00:33:08.882Z,3.60
2023-07-27T00:35:59.909Z,5.05
2023-07-27T00:38:47.047Z,4.07
2023-07-27T00:41:34.431Z,3.92
2023-07-27T00:44:21.797Z,5.18
2023-07-27T00:47:09.085Z,3.53
2023-07-27T00:49:57.147Z,4.25
2023-07-27T00:52:44.234Z,5.03
2023-07-27T00:55:31.947Z,5.85
2023-07-27T00:58:19.040Z,4.65
2023-07-27T01:01:06.591Z,4.70
2023-07-27T01:03:54.379Z,4.10
2023-07-27T01:06:41.792Z,4.88
2023-07-27T01:09:29.291Z,3.70
2023-07-27T01:12:32.826Z,5.13
2023-07-27T01:15:27.044Z,6.32
2023-07-27T01:18:26.785Z,5.25
2023-07-27T01:21:20.329Z,5.95
2023-07-27T01:24:10.090Z,4.55
2023-07-27T01:27:16.527Z,4.70
2023-07-27T01:30:26.480Z,3.83
2023-07-27T01:33:15.583Z,4.18
2023-07-27T01:36:12.393Z,3.95
2023-07-27T01:39:04.508Z,4.50
2023-07-27T01:41:54.063Z,7.18
2023-07-27T01:44:41.869Z,6.88
2023-07-27T01:47:30.016Z,5.40
2023-07-27T01:50:18.063Z,5.30
2023-07-27T01:53:06.163Z,4.93
2023-07-27T01:55:54.316Z,4.07
2023-07-27T01:58:43.129Z,4.65
2023-07-27T02:01:31.408Z,5.13
2023-07-27T02:04:18.681Z,6.22
2023-07-27T02:07:06.221Z,3.92
2023-07-27T02:09:52.980Z,5.65
2023-07-27T02:12:46.087Z,4.50
2023-07-27T02:15:43.595Z,4.93
2023-07-27T02:18:32.474Z,5.50
2023-07-27T02:21:21.615Z,5.53
2023-07-27T02:24:09.612Z,4.57
2023-07-27T02:26:56.982Z,4.55
2023-07-27T02:29:44.166Z,8.38
2023-07-27T02:35:19.399Z,5.07
2023-07-27T02:38:06.479Z,5.38
2023-07-27T02:40:53.350Z,4.65
2023-07-27T02:43:40.492Z,4.72
2023-07-27T02:46:27.578Z,5.28
2023-07-27T02:49:14.785Z,4.63
2023-07-27T02:54:48.851Z,6.38
2023-07-27T02:57:35.872Z,5.60
2023-07-27T03:00:23.028Z,6.45
2023-07-27T03:03:10.418Z,6.05
2023-07-27T03:06:01.837Z,10.05
2023-07-27T03:08:49.201Z,5.00
2023-07-27T03:11:39.343Z,6.38
2023-07-27T03:14:26.731Z,5.68
2023-07-27T03:17:13.873Z,6.18
2023-07-27T03:22:48.029Z,5.70
2023-07-27T03:25:36.030Z,7.40
2023-07-27T03:28:23.234Z,6.60
2023-07-27T03:34:04.556Z,6.35
2023-07-27T03:36:51.528Z,6.78
2023-07-27T03:39:38.878Z,5.40
2023-07-27T03:42:25.629Z,6.18
2023-07-27T03:45:15.475Z,6.05
2023-07-27T03:48:02.841Z,8.32
2023-07-27T03:50:50.321Z,5.40
2023-07-27T03:53:37.837Z,6.03
2023-07-27T03:56:25.668Z,7.80
2023-07-27T03:59:13.180Z,6.22
2023-07-27T04:02:00.325Z,7.30
2023-07-27T04:04:49.437Z,5.72
2023-07-27T04:07:36.472Z,6.40
2023-07-27T04:10:23.865Z,6.10
2023-07-27T04:13:14.425Z,5.90
2023-07-27T04:16:01.622Z,5.85
2023-07-27T04:21:35.468Z,5.63
2023-07-27T04:27:09.595Z,5.55
2023-07-27T04:29:56.744Z,6.00
2023-07-27T04:35:30.537Z,4.93
2023-07-27T04:38:17.334Z,7.78
2023-07-27T04:41:04.461Z,6.18
2023-07-27T04:43:51.665Z,7.45
2023-07-27T04:49:27.742Z,5.85
2023-07-27T04:52:14.506Z,5.45
2023-07-27T04:55:01.650Z,4.72
2023-07-27T05:00:36.182Z,8.23
2023-07-27T05:03:23.251Z,6.25
2023-07-27T05:06:10.612Z,5.28
2023-07-27T05:08:57.393Z,6.10
2023-07-27T05:11:44.860Z,5.13
2023-07-27T05:14:31.864Z,6.07
2023-07-27T05:17:19.218Z,7.80
2023-07-27T05:20:07.126Z,6.28
2023-07-27T05:22:54.192Z,6.80
2023-07-27T05:25:41.077Z,4.43
2023-07-27T05:28:28.232Z,7.38
2023-07-27T05:31:15.301Z,4.75
2023-07-27T05:34:02.112Z,6.00
2023-07-27T05:36:49.489Z,6.68
2023-07-27T05:39:36.376Z,4.93
2023-07-27T05:42:23.688Z,5.45
2023-07-27T05:45:11.101Z,7.22
2023-07-27T05:47:59.141Z,5.55
2023-07-27T05:50:46.387Z,5.45
2023-07-27T05:56:20.358Z,4.90
2023-07-27T05:59:07.473Z,4.53
2023-07-27T06:01:54.909Z,4.80
2023-07-27T06:04:41.697Z,6.32
2023-07-27T06:07:28.538Z,5.13
2023-07-27T06:10:16.194Z,6.20
2023-07-27T06:13:03.623Z,7.38
2023-07-27T06:15:50.914Z,4.80
2023-07-27T06:18:38.066Z,7.00
2023-07-27T06:24:11.881Z,5.78
2023-07-27T06:26:59.083Z,4.90
2023-07-27T06:29:46.801Z,5.45
2023-07-27T06:32:33.978Z,5.50
2023-07-27T06:35:21.637Z,6.82
2023-07-27T06:38:08.877Z,5.10
2023-07-27T06:40:55.902Z,5.78
2023-07-27T06:43:42.707Z,5.35
2023-07-27T06:46:29.933Z,4.30
2023-07-27T06:49:17.139Z,4.43
2023-07-27T06:52:04.948Z,6.82
2023-07-27T06:54:51.967Z,5.93
2023-07-27T06:57:39.159Z,5.05
2023-07-27T07:00:25.964Z,8.70
2023-07-27T07:03:13.489Z,5.53
2023-07-27T07:06:00.601Z,5.90
2023-07-27T07:11:34.373Z,3.95
2023-07-27T07:14:21.939Z,5.60
2023-07-27T07:17:09.125Z,5.38
2023-07-27T07:19:56.567Z,3.78
2023-07-27T07:22:43.638Z,5.22
2023-07-27T07:28:17.740Z,4.53
2023-07-27T07:31:05.030Z,4.05
2023-07-27T07:33:52.462Z,4.63
2023-07-27T07:36:39.245Z,7.38
2023-07-27T07:39:26.435Z,6.18
2023-07-27T07:42:13.315Z,6.53
2023-07-27T07:45:00.732Z,5.80
2023-07-27T07:47:47.538Z,4.10
2023-07-27T07:50:40.871Z,6.85
2023-07-27T07:53:34.945Z,5.30
2023-07-27T07:56:24.795Z,4.00
2023-07-27T07:59:11.589Z,4.30
2023-07-27T08:01:58.420Z,5.28
2023-07-27T08:04:45.585Z,4.15
2023-07-27T08:10:20.892Z,5.28
2023-07-27T08:13:08.000Z,5.03
2023-07-27T08:15:56.001Z,5.20
2023-07-27T08:18:43.133Z,4.88
2023-07-27T08:24:21.855Z,5.90
2023-07-27T08:27:10.064Z,5.00
2023-07-27T08:29:57.763Z,4.00
2023-07-27T08:32:47.749Z,6.32
2023-07-27T08:35:34.864Z,4.50
2023-07-27T08:41:09.358Z,4.45
2023-07-27T08:43:56.483Z,5.43
2023-07-27T08:49:31.843Z,4.07
2023-07-27T08:52:19.236Z,4.05
2023-07-27T08:55:06.929Z,5.28
2023-07-27T08:57:54.026Z,5.35
2023-07-27T09:03:28.118Z,6.22
2023-07-27T09:06:15.244Z,6.70
2023-07-27T09:09:14.606Z,5.47
2023-07-27T09:14:52.315Z,6.10
2023-07-27T09:17:40.732Z,5.03
2023-07-27T09:20:28.248Z,4.85
2023-07-27T09:23:22.891Z,5.97
2023-07-27T09:26:10.041Z,7.43
2023-07-27T09:28:57.135Z,5.53
2023-07-27T09:31:48.907Z,5.20
2023-07-27T09:34:36.084Z,8.38
2023-07-27T09:37:24.266Z,5.90
2023-07-27T09:40:14.668Z,6.97
2023-07-27T09:43:07.514Z,6.68
2023-07-27T09:45:59.514Z,7.07
2023-07-27T09:48:47.217Z,5.22
2023-07-27T09:51:35.964Z,8.20
2023-07-27T09:54:24.537Z,6.38
2023-07-27T09:57:13.453Z,4.80
2023-07-27T10:00:05.873Z,5.03
2023-07-27T10:02:55.893Z,5.60
2023-07-27T10:05:47.230Z,5.25
2023-07-27T10:08:41.651Z,5.05
2023-07-27T10:11:30.982Z,5.90
2023-07-27T10:14:19.837Z,6.32
2023-07-27T10:17:08.587Z,4.95
2023-07-27T10:19:55.509Z,4.45
2023-07-27T10:22:42.661Z,4.82
2023-07-27T10:25:58.256Z,5.00
2023-07-27T10:28:48.870Z,5.93
2023-07-27T10:31:35.929Z,4.20
2023-07-27T10:37:17.928Z,5.68
2023-07-27T10:40:11.073Z,6.50
2023-07-27T10:42:59.613Z,4.70
2023-07-27T10:45:56.176Z,5.95
2023-07-27T10:48:59.317Z,5.82
2023-07-27T10:51:49.331Z,5.75
2023-07-27T10:54:41.152Z,5.35
2023-07-27T10:57:30.477Z,4.75
2023-07-27T11:00:17.360Z,3.58
2023-07-27T11:03:04.543Z,4.43
2023-07-27T11:06:04.712Z,4.88
2023-07-27T11:08:51.995Z,5.03
2023-07-27T11:11:39.115Z,4.95
2023-07-27T11:17:13.855Z,4.85
2023-07-27T11:20:01.121Z,5.05
2023-07-27T11:22:49.104Z,4.05
2023-07-27T11:25:38.334Z,5.68
2023-07-27T11:28:26.466Z,4.53
2023-07-27T11:31:18.814Z,4.53
2023-07-27T11:34:08.310Z,4.40
2023-07-27T11:36:59.227Z,6.38
2023-07-27T11:39:47.068Z,4.32
2023-07-27T11:42:38.087Z,5.70
2023-07-27T11:45:26.701Z,4.10
2023-07-27T11:48:13.679Z,6.93
2023-07-27T11:51:01.942Z,5.05
2023-07-27T11:53:48.947Z,7.45
2023-07-27T11:56:38.059Z,5.55
2023-07-27T11:59:24.796Z,8.10
2023-07-27T12:02:12.003Z,7.90
2023-07-27T12:04:59.993Z,5.35
2023-07-27T12:11:03.471Z,4.85
2023-07-27T12:19:30.667Z,4.75
2023-07-27T12:30:49.164Z,6.43
2023-07-27T12:33:36.051Z,8.20
2023-07-27T12:36:23.056Z,8.82
2023-07-27T12:39:09.826Z,7.07
2023-07-27T12:44:47.042Z,7.53
2023-07-27T12:47:34.178Z,5.55
2023-07-27T12:53:09.047Z,5.90
2023-07-27T12:55:56.592Z,7.15
2023-07-27T12:58:43.740Z,7.47
2023-07-27T13:04:18.479Z,5.47
2023-07-27T13:07:05.942Z,7.50
2023-07-27T13:09:52.777Z,7.30
2023-07-27T13:12:39.938Z,6.25
2023-07-27T13:18:16.249Z,5.32
2023-07-27T13:23:49.713Z,6.05
2023-07-27T13:26:36.465Z,7.03
2023-07-27T13:29:23.506Z,8.52
2023-07-27T13:32:10.806Z,5.45
2023-07-27T13:35:01.299Z,5.05
2023-07-27T13:37:48.502Z,5.38
2023-07-27T13:40:35.409Z,5.47
2023-07-27T13:43:22.836Z,4.68
2023-07-27T13:48:56.421Z,3.58
2023-07-27T13:51:43.443Z,5.65
2023-07-27T13:54:30.654Z,3.83
2023-07-27T14:00:05.275Z,4.28
2023-07-27T14:02:52.412Z,3.42
2023-07-27T14:05:39.871Z,2.97
2023-07-27T14:08:27.108Z,3.88
2023-07-27T14:11:15.207Z,3.88
2023-07-27T14:14:03.652Z,3.17
2023-07-27T14:16:51.453Z,3.28
2023-07-27T14:19:38.512Z,3.53
2023-07-27T14:25:15.503Z,3.45
2023-07-27T14:31:11.631Z,3.70
2023-07-27T14:34:04.410Z,4.28
2023-07-27T14:36:54.975Z,3.67
2023-07-27T14:42:31.869Z,3.35
2023-07-27T14:48:05.619Z,4.28
2023-07-27T14:53:40.083Z,3.33
2023-07-27T14:56:27.745Z,2.97
2023-07-27T14:59:24.766Z,2.88
2023-07-27T15:02:14.319Z,2.67
2023-07-27T15:05:01.276Z,3.72
2023-07-27T15:07:50.550Z,4.53
2023-07-27T15:10:39.408Z,2.17
2023-07-27T15:13:27.556Z,3.42
2023-07-27T15:16:15.147Z,4.28
2023-07-27T15:19:01.958Z,3.70
2023-07-27T15:21:49.427Z,3.15
2023-07-27T15:24:37.657Z,2.45
2023-07-27T15:27:25.172Z,3.10
2023-07-27T15:30:12.644Z,3.05
2023-07-27T15:33:01.981Z,3.58
2023-07-27T15:35:48.959Z,2.28
2023-07-27T15:38:36.357Z,3.20
2023-07-27T15:41:23.210Z,3.10
2023-07-27T15:44:10.666Z,3.13
2023-07-27T15:46:58.091Z,4.28
2023-07-27T15:49:44.900Z,2.63
2023-07-27T15:52:32.025Z,2.65
2023-07-27T15:55:19.250Z,2.78
2023-07-27T15:58:07.831Z,2.70
2023-07-27T16:00:58.558Z,5.32
2023-07-27T16:03:45.940Z,2.58
2023-07-27T16:06:33.802Z,4.53
2023-07-27T16:09:21.714Z,2.65
2023-07-27T16:12:09.013Z,2.88
2023-07-27T16:14:57.269Z,2.38
2023-07-27T16:17:45.070Z,2.88
2023-07-27T16:20:31.867Z,2.47
2023-07-27T16:23:19.738Z,2.58
2023-07-27T16:26:07.566Z,2.17
2023-07-27T16:28:55.238Z,4.25
2023-07-27T16:31:42.022Z,2.75
2023-07-27T16:34:30.519Z,2.28
2023-07-27T16:37:17.553Z,2.50
2023-07-27T16:42:53.099Z,2.28
2023-07-27T16:45:40.338Z,2.17
2023-07-27T16:48:27.857Z,2.38
2023-07-27T16:51:16.854Z,3.13
2023-07-27T16:54:03.985Z,1.73
2023-07-27T16:56:52.226Z,2.00
2023-07-27T16:59:39.469Z,1.83
2023-07-27T17:02:26.592Z,2.95
2023-07-27T17:05:13.817Z,4.05
2023-07-27T17:08:00.575Z,1.65
2023-07-27T17:10:49.953Z,1.77
2023-07-27T17:13:37.998Z,1.98
2023-07-27T17:16:26.439Z,2.28
2023-07-27T17:19:13.709Z,1.52
2023-07-27T17:22:00.534Z,1.83
2023-07-27T17:24:47.579Z,16.35
2023-07-27T17:27:34.687Z,2.13
2023-07-27T17:30:23.265Z,1.85
2023-07-27T17:33:10.148Z,2.45
2023-07-27T17:36:02.624Z,2.85
2023-07-27T17:38:49.826Z,2.05
2023-07-27T17:41:37.176Z,2.17
2023-07-27T17:44:27.892Z,4.05
2023-07-27T17:47:14.889Z,1.60
2023-07-27T17:52:51.694Z,1.27
2023-07-27T17:58:25.160Z,2.38
2023-07-27T18:01:12.550Z,1.27
2023-07-27T18:03:59.793Z,1.77
2023-07-27T18:06:46.877Z,2.58
2023-07-27T18:12:29.157Z,1.00
2023-07-27T18:18:03.435Z,1.02
2023-07-27T18:20:50.334Z,1.60
2023-07-27T18:23:37.900Z,0.90
2023-07-27T18:26:26.292Z,0.98
2023-07-27T18:29:15.836Z,1.05
2023-07-27T18:32:03.766Z,1.20
2023-07-27T18:34:55.975Z,1.10
2023-07-27T18:37:48.184Z,1.25
2023-07-27T18:43:50.110Z,1.10
2023-07-27T18:46:38.342Z,1.42
2023-07-27T18:49:25.435Z,1.33
2023-07-27T18:55:00.349Z,3.08
2023-07-27T18:57:47.391Z,1.70
2023-07-27T19:00:37.143Z,2.05
2023-07-27T19:03:27.460Z,1.90
2023-07-27T19:06:16.332Z,1.70
2023-07-27T19:09:04.457Z,2.30
2023-07-27T19:11:55.383Z,4.15
2023-07-27T19:14:44.379Z,3.60
2023-07-27T19:17:35.006Z,2.03
2023-07-27T19:20:25.308Z,1.67
2023-07-27T19:23:12.359Z,1.88
2023-07-27T19:28:55.509Z,2.25
2023-07-27T19:31:46.120Z,1.83
2023-07-27T19:34:34.180Z,1.90
2023-07-27T19:37:23.930Z,4.03
2023-07-27T19:40:11.525Z,6.20
2023-07-27T19:43:00.425Z,2.80
2023-07-27T19:45:50.154Z,3.15
2023-07-27T19:48:38.184Z,1.58
2023-07-27T19:51:33.044Z,3.92
2023-07-27T19:54:19.798Z,1.30
2023-07-27T19:57:06.917Z,1.83
2023-07-27T19:59:57.823Z,2.03
2023-07-27T20:02:46.232Z,2.08
2023-07-27T20:05:33.817Z,1.48
2023-07-27T20:08:28.619Z,2.38
2023-07-27T20:11:29.047Z,2.42
2023-07-27T20:14:33.273Z,2.70
2023-07-27T20:17:24.988Z,2.00
2023-07-27T20:20:12.195Z,3.17
2023-07-27T20:22:59.453Z,2.30
2023-07-27T20:25:46.942Z,3.47
2023-07-27T20:28:34.165Z,6.22
2023-07-27T20:31:21.252Z,2.50
2023-07-27T20:36:55.436Z,3.47
2023-07-27T20:39:42.954Z,4.65
2023-07-27T20:42:30.931Z,5.05
2023-07-27T20:45:19.141Z,5.43
2023-07-27T20:48:06.272Z,5.93
2023-07-27T20:50:53.835Z,6.97
2023-07-27T20:53:43.062Z,7.20
2023-07-27T20:56:30.221Z,4.88
2023-07-27T20:59:17.263Z,7.13
2023-07-27T21:04:52.609Z,7.03
2023-07-27T21:07:40.144Z,7.63
2023-07-27T21:10:31.885Z,8.43
2023-07-27T21:13:19.323Z,9.02
2023-07-27T21:16:08.412Z,7.10
2023-07-27T21:18:55.824Z,8.65
2023-07-27T21:21:43.073Z,8.30
2023-07-27T21:24:30.071Z,9.02
2023-07-27T21:30:05.989Z,6.93
2023-07-27T21:32:52.775Z,8.20
2023-07-27T21:35:43.484Z,8.02
2023-07-27T21:38:30.674Z,9.30
2023-07-27T21:41:17.478Z,8.68
2023-07-27T21:44:04.705Z,12.07
2023-07-27T21:46:51.692Z,7.15
2023-07-27T21:52:25.395Z,6.65
2023-07-27T21:55:12.517Z,6.10
2023-07-27T21:57:59.544Z,7.38
2023-07-27T22:03:35.417Z,6.45
2023-07-27T22:06:22.262Z,6.28
2023-07-27T22:09:09.673Z,8.55
2023-07-27T22:11:56.487Z,6.10
2023-07-27T22:14:43.618Z,7.57
2023-07-27T22:17:30.877Z,6.45
2023-07-27T22:20:18.041Z,6.43
2023-07-27T22:23:05.197Z,7.38
2023-07-27T22:25:51.974Z,7.72
2023-07-27T22:28:39.151Z,6.93
2023-07-27T22:31:26.011Z,6.60
2023-07-27T22:34:13.675Z,6.95
2023-07-27T22:37:00.849Z,6.15
2023-07-27T22:39:47.695Z,6.35
2023-07-27T22:42:35.006Z,5.45
2023-07-27T22:45:22.530Z,8.13
2023-07-27T22:48:09.592Z,6.95
2023-07-27T22:50:57.079Z,6.15
2023-07-27T22:53:44.565Z,6.07
2023-07-27T22:56:32.578Z,7.25
2023-07-27T22:59:20.172Z,9.77
2023-07-27T23:02:06.940Z,8.07
2023-07-27T23:04:53.828Z,8.30
2023-07-27T23:10:27.973Z,6.85
2023-07-27T23:13:14.765Z,8.75
2023-07-27T23:16:01.561Z,9.45
2023-07-27T23:18:48.710Z,7.78
2023-07-27T23:21:35.719Z,7.82
2023-07-27T23:27:10.878Z,8.20
2023-07-27T23:29:58.094Z,7.22
2023-07-27T23:32:44.896Z,7.93
2023-07-27T23:35:35.263Z,8.10
2023-07-27T23:38:22.046Z,11.30
2023-07-27T23:41:09.655Z,7.40
2023-07-27T23:43:56.833Z,8.27
2023-07-27T23:46:44.314Z,8.65
2023-07-27T23:49:31.369Z,9.65
2023-07-27T23:55:05.518Z,9.05
2023-07-27T23:57:52.908Z,8.57
